createdAt,value
2022-09-20T00:00:11.878Z,28.60
2022-09-20T00:01:21.782Z,29.26
2022-09-20T00:02:23.765Z,28.54
2022-09-20T00:03:25.513Z,29.05
2022-09-20T00:04:27.278Z,28.61
2022-09-20T00:05:29.130Z,28.82
2022-09-20T00:06:32.810Z,29.10
2022-09-20T00:07:35.220Z,28.93
2022-09-20T00:08:37.039Z,29.15
2022-09-20T00:09:41.175Z,28.89
2022-09-20T00:10:43.260Z,28.73
2022-09-20T00:11:45.455Z,28.99
2022-09-20T00:12:47.126Z,28.69
2022-09-20T00:13:50.712Z,28.69
2022-09-20T00:14:52.454Z,28.95
2022-09-20T00:15:54.369Z,28.89
2022-09-20T00:16:56.238Z,28.99
2022-09-20T00:17:58.790Z,29.16
2022-09-20T00:19:04.225Z,29.18
2022-09-20T00:20:06.637Z,28.41
2022-09-20T00:21:16.353Z,28.87
2022-09-20T00:22:18.099Z,29.18
2022-09-20T00:23:20.215Z,28.91
2022-09-20T00:24:21.896Z,28.90
2022-09-20T00:25:23.687Z,28.82
2022-09-20T00:26:27.497Z,28.63
2022-09-20T00:27:29.391Z,28.61
2022-09-20T00:28:33.742Z,28.95
2022-09-20T00:29:35.641Z,28.63
2022-09-20T00:30:37.706Z,28.59
2022-09-20T00:31:41.590Z,29.16
2022-09-20T00:32:43.413Z,29.14
2022-09-20T00:34:03.580Z,28.65
2022-09-20T00:35:08.415Z,29.27
2022-09-20T00:36:10.208Z,28.92
2022-09-20T00:37:11.929Z,28.66
2022-09-20T00:38:15.229Z,29.19
2022-09-20T00:39:17.621Z,28.93
2022-09-20T00:40:21.698Z,29.17
2022-09-20T00:41:23.870Z,28.93
2022-09-20T00:42:30.171Z,28.89
2022-09-20T00:43:45.956Z,29.23
2022-09-20T00:44:57.675Z,28.57
2022-09-20T00:46:01.703Z,29.21
2022-09-20T00:47:08.121Z,28.96
2022-09-20T00:48:16.371Z,28.96
2022-09-20T00:49:22.030Z,29.14
2022-09-20T00:50:44.166Z,29.18
2022-09-20T00:51:49.670Z,28.72
2022-09-20T00:53:04.035Z,28.62
2022-09-20T00:54:09.435Z,28.99
2022-09-20T00:55:11.786Z,28.65
2022-09-20T00:56:20.329Z,29.26
2022-09-20T00:57:22.406Z,28.76
2022-09-20T00:58:26.486Z,29.12
2022-09-20T00:59:35.393Z,28.62
2022-09-20T01:00:39.123Z,28.54
2022-09-20T01:01:41.925Z,28.58
2022-09-20T01:02:52.115Z,29.40
2022-09-20T01:03:54.917Z,28.67
2022-09-20T01:04:58.202Z,29.17
2022-09-20T01:06:04.322Z,29.14
2022-09-20T01:07:08.330Z,29.03
2022-09-20T01:08:11.374Z,28.89
2022-09-20T01:09:13.127Z,28.90
2022-09-20T01:10:14.818Z,28.66
2022-09-20T01:11:16.994Z,29.11
2022-09-20T01:12:22.267Z,29.00
2022-09-20T01:13:24.085Z,29.24
2022-09-20T01:14:26.899Z,28.95
2022-09-20T01:15:31.478Z,29.41
2022-09-20T01:16:34.418Z,28.97
2022-09-20T01:17:39.280Z,29.12
2022-09-20T01:18:43.760Z,28.75
2022-09-20T01:20:29.229Z,28.91
2022-09-20T01:21:31.535Z,28.28
2022-09-20T01:23:00.570Z,28.51
2022-09-20T01:24:27.758Z,29.08
2022-09-20T01:25:44.947Z,28.69
2022-09-20T01:27:07.910Z,29.08
2022-09-20T01:28:09.821Z,28.73
2022-09-20T01:29:37.513Z,29.02
2022-09-20T01:30:45.659Z,28.67
2022-09-20T01:31:56.628Z,28.52
2022-09-20T01:33:28.772Z,28.82
2022-09-20T01:34:39.733Z,28.63
2022-09-20T01:35:47.282Z,28.84
2022-09-20T01:36:58.036Z,29.18
2022-09-20T01:38:15.855Z,29.18
2022-09-20T01:39:37.835Z,29.12
2022-09-20T01:41:04.385Z,29.20
2022-09-20T01:42:09.903Z,28.59
2022-09-20T01:43:44.034Z,28.69
2022-09-20T01:45:03.955Z,28.50
2022-09-20T01:46:33.328Z,28.78
2022-09-20T01:47:49.983Z,28.62
2022-09-20T01:48:58.221Z,28.94
2022-09-20T01:51:02.615Z,28.75
2022-09-20T01:52:13.346Z,28.52
2022-09-20T01:53:36.319Z,28.72
2022-09-20T01:55:25.601Z,28.41
2022-09-20T01:56:50.477Z,28.21
2022-09-20T01:58:08.148Z,28.65
2022-09-20T01:59:23.584Z,28.80
2022-09-20T02:00:37.338Z,28.51
2022-09-20T02:01:58.811Z,28.61
2022-09-20T02:03:54.177Z,28.40
2022-09-20T02:05:10.049Z,29.00
2022-09-20T02:06:14.627Z,28.50
2022-09-20T02:07:34.846Z,28.94
2022-09-20T02:09:07.743Z,28.82
2022-09-20T02:10:34.392Z,28.60
2022-09-20T02:12:00.161Z,28.92
2022-09-20T02:13:27.390Z,28.90
2022-09-20T02:14:31.403Z,28.44
2022-09-20T02:15:57.999Z,28.69
2022-09-20T02:17:13.976Z,28.40
2022-09-20T02:18:18.392Z,29.17
2022-09-20T02:19:38.389Z,29.09
2022-09-20T02:21:05.497Z,28.57
2022-09-20T02:22:22.885Z,29.04
2022-09-20T02:23:44.598Z,28.55
2022-09-20T02:25:01.180Z,28.66
2022-09-20T02:26:27.853Z,28.68
2022-09-20T02:27:38.486Z,28.55
2022-09-20T02:28:53.263Z,28.94
2022-09-20T02:30:21.986Z,29.07
2022-09-20T02:31:44.802Z,28.37
2022-09-20T02:33:06.890Z,28.50
2022-09-20T02:34:42.280Z,28.47
2022-09-20T02:36:34.490Z,28.36
2022-09-20T02:37:51.912Z,28.41
2022-09-20T02:39:10.653Z,28.52
2022-09-20T02:40:57.230Z,28.44
2022-09-20T02:42:14.502Z,28.58
2022-09-20T02:43:33.119Z,28.99
2022-09-20T02:44:46.570Z,28.41
2022-09-20T02:46:04.379Z,28.45
2022-09-20T02:47:17.327Z,28.52
2022-09-20T02:48:26.872Z,28.73
2022-09-20T02:49:59.442Z,28.77
2022-09-20T02:51:18.402Z,28.85
2022-09-20T02:52:31.786Z,28.53
2022-09-20T02:54:01.026Z,28.87
2022-09-20T02:55:21.158Z,28.64
2022-09-20T02:56:34.849Z,28.43
2022-09-20T02:57:45.716Z,28.65
2022-09-20T02:59:24.396Z,28.67
2022-09-20T03:00:37.409Z,28.71
2022-09-20T03:01:53.912Z,28.24
2022-09-20T03:03:24.510Z,28.38
2022-09-20T03:04:45.858Z,28.80
2022-09-20T03:06:02.898Z,28.81
2022-09-20T03:07:16.482Z,28.71
2022-09-20T03:08:50.526Z,28.18
2022-09-20T03:10:08.401Z,28.82
2022-09-20T03:11:27.553Z,28.36
2022-09-20T03:12:50.159Z,28.78
2022-09-20T03:14:04.430Z,28.88
2022-09-20T03:15:19.007Z,28.72
2022-09-20T03:16:48.750Z,28.47
2022-09-20T03:18:08.357Z,28.51
2022-09-20T03:19:22.278Z,28.80
2022-09-20T03:20:43.938Z,28.74
2022-09-20T03:21:54.914Z,28.26
2022-09-20T03:23:19.570Z,28.92
2022-09-20T03:24:57.617Z,28.82
2022-09-20T03:26:17.726Z,28.29
2022-09-20T03:27:50.149Z,28.53
2022-09-20T03:29:27.286Z,28.05
2022-09-20T03:30:44.090Z,28.11
2022-09-20T03:32:16.503Z,28.15
2022-09-20T03:33:47.150Z,28.75
2022-09-20T03:35:16.357Z,28.19
2022-09-20T03:36:30.333Z,28.18
2022-09-20T03:37:43.849Z,28.26
2022-09-20T03:39:02.828Z,28.36
2022-09-20T03:40:22.927Z,28.36
2022-09-20T03:41:42.677Z,28.22
2022-09-20T03:42:51.531Z,28.48
2022-09-20T03:44:15.338Z,28.58
2022-09-20T03:45:23.242Z,28.18
2022-09-20T03:46:30.464Z,28.86
2022-09-20T03:47:50.791Z,28.06
2022-09-20T03:49:07.446Z,28.83
2022-09-20T03:50:42.995Z,28.33
2022-09-20T03:52:18.315Z,28.27
2022-09-20T03:53:20.326Z,28.40
2022-09-20T03:54:24.618Z,28.25
2022-09-20T03:56:03.735Z,28.20
2022-09-20T03:57:30.546Z,28.69
2022-09-20T03:58:55.186Z,28.16
2022-09-20T04:00:21.397Z,28.70
2022-09-20T04:01:41.867Z,28.08
2022-09-20T04:03:05.066Z,28.60
2022-09-20T04:04:45.406Z,28.82
2022-09-20T04:06:29.585Z,28.11
2022-09-20T04:07:56.182Z,28.05
2022-09-20T04:09:25.637Z,28.74
2022-09-20T04:10:46.973Z,27.95
2022-09-20T04:12:03.672Z,27.99
2022-09-20T04:13:47.860Z,28.32
2022-09-20T04:15:27.519Z,28.08
2022-09-20T04:16:58.427Z,28.24
2022-09-20T04:18:02.981Z,28.24
2022-09-20T04:19:16.574Z,28.62
2022-09-20T04:20:36.947Z,28.33
2022-09-20T04:21:43.858Z,28.05
2022-09-20T04:22:51.370Z,28.55
2022-09-20T04:24:11.011Z,28.60
2022-09-20T04:25:23.830Z,28.81
2022-09-20T04:26:32.455Z,28.26
2022-09-20T04:27:44.798Z,28.34
2022-09-20T04:28:52.874Z,28.40
2022-09-20T04:30:17.451Z,28.67
2022-09-20T04:31:37.891Z,28.17
2022-09-20T04:32:45.111Z,28.22
2022-09-20T04:33:51.199Z,28.19
2022-09-20T04:35:20.558Z,28.76
2022-09-20T04:36:57.564Z,28.36
2022-09-20T04:38:05.592Z,27.96
2022-09-20T04:39:32.651Z,28.82
2022-09-20T04:41:05.610Z,28.56
2022-09-20T04:42:22.638Z,28.69
2022-09-20T04:43:51.310Z,27.86
2022-09-20T04:45:22.486Z,28.64
2022-09-20T04:46:58.613Z,28.63
2022-09-20T04:48:33.648Z,28.17
2022-09-20T04:50:07.817Z,28.79
2022-09-20T04:51:33.934Z,28.43
2022-09-20T04:52:41.685Z,28.68
2022-09-20T04:54:02.493Z,28.75
2022-09-20T04:55:04.165Z,28.07
2022-09-20T04:56:58.512Z,28.13
2022-09-20T04:58:19.454Z,28.01
2022-09-20T04:59:34.354Z,28.16
2022-09-20T05:01:17.731Z,28.71
2022-09-20T05:02:42.069Z,28.68
2022-09-20T05:04:12.804Z,28.17
2022-09-20T05:05:44.633Z,28.68
2022-09-20T05:07:25.967Z,28.70
2022-09-20T05:08:49.225Z,27.88
2022-09-20T05:09:57.190Z,28.67
2022-09-20T05:11:17.381Z,28.05
2022-09-20T05:12:54.717Z,28.29
2022-09-20T05:14:22.557Z,27.87
2022-09-20T05:15:37.473Z,28.54
2022-09-20T05:17:15.069Z,28.10
2022-09-20T05:18:16.720Z,27.89
2022-09-20T05:19:39.654Z,28.34
2022-09-20T05:20:59.917Z,28.34
2022-09-20T05:22:30.052Z,28.43
2022-09-20T05:23:55.536Z,27.43
2022-09-20T05:25:34.391Z,27.72
2022-09-20T05:27:13.901Z,27.31
2022-09-20T05:28:41.938Z,28.02
2022-09-20T05:30:04.311Z,27.83
2022-09-20T05:31:19.718Z,27.82
2022-09-20T05:32:33.398Z,27.52
2022-09-20T05:33:56.444Z,27.64
2022-09-20T05:35:06.855Z,26.99
2022-09-20T05:36:23.642Z,27.41
2022-09-20T05:37:56.938Z,27.38
2022-09-20T05:39:14.414Z,26.73
2022-09-20T05:40:54.234Z,26.69
2022-09-20T05:42:16.466Z,26.86
2022-09-20T05:43:30.943Z,27.21
2022-09-20T05:44:58.192Z,27.16
2022-09-20T05:46:17.214Z,27.10
2022-09-20T05:47:28.382Z,26.49
2022-09-20T05:48:52.211Z,26.46
2022-09-20T05:50:09.022Z,26.28
2022-09-20T05:51:29.548Z,26.38
2022-09-20T05:52:32.207Z,26.29
2022-09-20T05:53:45.990Z,26.55
2022-09-20T05:54:54.960Z,26.73
2022-09-20T05:56:14.494Z,26.28
2022-09-20T05:58:06.881Z,26.79
2022-09-20T05:59:37.041Z,26.50
2022-09-20T06:00:57.623Z,26.14
2022-09-20T06:02:29.710Z,26.26
2022-09-20T06:03:43.030Z,26.28
2022-09-20T06:05:14.350Z,26.00
2022-09-20T06:06:22.637Z,26.34
2022-09-20T06:07:37.126Z,26.02
2022-09-20T06:08:51.855Z,26.15
2022-09-20T06:10:31.517Z,26.12
2022-09-20T06:11:47.206Z,26.27
2022-09-20T06:12:54.949Z,25.96
2022-09-20T06:14:11.915Z,25.90
2022-09-20T06:15:44.944Z,26.18
2022-09-20T06:17:13.529Z,26.08
2022-09-20T06:18:33.637Z,25.82
2022-09-20T06:19:39.743Z,25.92
2022-09-20T06:21:07.662Z,25.83
2022-09-20T06:22:43.164Z,26.09
2022-09-20T06:23:45.380Z,26.16
2022-09-20T06:25:01.102Z,25.91
2022-09-20T06:26:08.016Z,25.91
2022-09-20T06:27:24.396Z,26.02
2022-09-20T06:28:40.078Z,25.91
2022-09-20T06:29:49.166Z,25.81
2022-09-20T06:30:55.962Z,25.82
2022-09-20T06:31:58.224Z,26.23
2022-09-20T06:33:10.390Z,25.91
2022-09-20T06:34:15.751Z,26.10
2022-09-20T06:35:17.583Z,25.94
2022-09-20T06:36:46.917Z,25.69
2022-09-20T06:38:18.216Z,25.70
2022-09-20T06:39:59.316Z,25.90
2022-09-20T06:41:19.946Z,25.63
2022-09-20T06:42:25.303Z,25.64
2022-09-20T06:43:31.500Z,25.50
2022-09-20T06:44:33.307Z,25.57
2022-09-20T06:45:35.944Z,25.71
2022-09-20T06:46:38.529Z,25.41
2022-09-20T06:47:40.513Z,25.83
2022-09-20T06:48:42.202Z,25.44
2022-09-20T06:49:44.501Z,26.03
2022-09-20T06:50:46.366Z,25.96
2022-09-20T06:51:50.986Z,25.65
2022-09-20T06:52:53.733Z,26.23
2022-09-20T06:53:57.470Z,26.15
2022-09-20T06:54:59.190Z,25.84
2022-09-20T06:56:01.977Z,25.79
2022-09-20T06:57:06.591Z,25.86
2022-09-20T06:58:09.891Z,25.77
2022-09-20T06:59:12.980Z,25.55
2022-09-20T07:00:16.093Z,25.41
2022-09-20T07:01:29.028Z,25.60
2022-09-20T07:02:31.357Z,25.95
2022-09-20T07:03:33.637Z,25.66
2022-09-20T07:04:35.749Z,25.74
2022-09-20T07:05:38.975Z,25.86
2022-09-20T07:06:40.809Z,25.51
2022-09-20T07:07:44.014Z,25.62
2022-09-20T07:08:49.000Z,26.15
2022-09-20T07:09:51.278Z,25.95
2022-09-20T07:10:53.118Z,25.98
2022-09-20T07:11:56.095Z,25.81
2022-09-20T07:13:00.477Z,25.73
2022-09-20T07:14:03.279Z,25.43
2022-09-20T07:15:06.267Z,25.87
2022-09-20T07:16:10.871Z,25.95
2022-09-20T07:17:13.328Z,25.65
2022-09-20T07:18:15.117Z,25.61
2022-09-20T07:19:16.828Z,25.45
2022-09-20T07:20:21.508Z,25.99
2022-09-20T07:21:23.838Z,26.08
2022-09-20T07:22:26.326Z,25.35
2022-09-20T07:23:32.397Z,25.34
2022-09-20T07:24:34.165Z,25.59
2022-09-20T07:25:36.707Z,25.33
2022-09-20T07:26:39.189Z,25.93
2022-09-20T07:27:41.700Z,25.49
2022-09-20T07:28:43.386Z,25.51
2022-09-20T07:29:46.321Z,25.40
2022-09-20T07:30:48.171Z,25.69
2022-09-20T07:31:50.834Z,25.80
2022-09-20T07:32:52.642Z,25.39
2022-09-20T07:33:54.481Z,25.22
2022-09-20T07:34:56.290Z,25.66
2022-09-20T07:35:58.258Z,25.47
2022-09-20T07:37:00.198Z,25.37
2022-09-20T07:38:03.123Z,25.78
2022-09-20T07:39:04.871Z,25.43
2022-09-20T07:40:07.397Z,25.38
2022-09-20T07:41:10.354Z,25.10
2022-09-20T07:42:13.558Z,25.35
2022-09-20T07:43:15.471Z,25.21
2022-09-20T07:44:22.274Z,25.30
2022-09-20T07:45:24.116Z,25.24
2022-09-20T07:46:25.883Z,25.43
2022-09-20T07:47:28.322Z,25.05
2022-09-20T07:48:32.110Z,25.35
2022-09-20T07:49:33.871Z,25.15
2022-09-20T07:50:36.201Z,25.06
2022-09-20T07:51:37.894Z,25.58
2022-09-20T07:52:39.719Z,25.16
2022-09-20T07:53:41.669Z,25.23
2022-09-20T07:54:43.762Z,25.40
2022-09-20T07:56:16.605Z,25.27
2022-09-20T07:57:18.562Z,25.16
2022-09-20T07:58:20.250Z,25.17
2022-09-20T07:59:22.191Z,25.37
2022-09-20T08:00:24.218Z,25.21
2022-09-20T08:01:26.042Z,25.50
2022-09-20T08:02:27.938Z,25.43
2022-09-20T08:03:31.103Z,24.86
2022-09-20T08:04:32.825Z,25.37
2022-09-20T08:05:35.875Z,25.49
2022-09-20T08:06:39.264Z,24.98
2022-09-20T08:07:41.095Z,25.40
2022-09-20T08:08:43.591Z,25.19
2022-09-20T08:09:45.438Z,25.09
2022-09-20T08:10:47.514Z,25.32
2022-09-20T08:11:49.572Z,25.40
2022-09-20T08:14:15.794Z,25.28
2022-09-20T08:15:17.719Z,25.07
2022-09-20T08:16:20.890Z,25.24
2022-09-20T08:17:22.674Z,25.18
2022-09-20T08:18:28.518Z,25.25
2022-09-20T08:19:30.568Z,25.07
2022-09-20T08:20:32.448Z,25.51
2022-09-20T08:21:35.551Z,25.48
2022-09-20T08:22:40.472Z,24.92
2022-09-20T08:23:44.729Z,25.50
2022-09-20T08:24:47.190Z,25.23
2022-09-20T08:25:49.908Z,25.44
2022-09-20T08:26:51.803Z,25.48
2022-09-20T08:27:54.216Z,25.29
2022-09-20T08:28:58.177Z,25.38
2022-09-20T08:30:01.229Z,25.49
2022-09-20T08:31:10.999Z,25.12
2022-09-20T08:32:12.763Z,24.98
2022-09-20T08:33:15.155Z,25.03
2022-09-20T08:34:18.499Z,25.03
2022-09-20T08:35:22.551Z,24.94
2022-09-20T08:36:26.082Z,24.88
2022-09-20T08:37:27.754Z,25.43
2022-09-20T08:39:59.410Z,25.39
2022-09-20T08:41:11.227Z,25.29
2022-09-20T08:42:25.139Z,25.10
2022-09-20T08:43:30.096Z,25.55
2022-09-20T08:44:45.350Z,25.04
2022-09-20T08:45:47.694Z,24.90
2022-09-20T08:47:02.596Z,25.58
2022-09-20T08:48:14.221Z,25.57
2022-09-20T08:49:29.795Z,25.13
2022-09-20T08:50:34.358Z,25.22
2022-09-20T08:51:40.166Z,25.13
2022-09-20T08:52:49.323Z,25.14
2022-09-20T08:53:55.873Z,25.60
2022-09-20T08:54:59.537Z,25.23
2022-09-20T08:56:01.657Z,25.25
2022-09-20T08:57:11.266Z,25.69
2022-09-20T08:58:14.359Z,25.74
2022-09-20T08:59:19.945Z,25.51
2022-09-20T09:00:26.467Z,25.41
2022-09-20T09:01:29.619Z,25.41
2022-09-20T09:02:33.033Z,25.51
2022-09-20T09:03:35.016Z,25.51
2022-09-20T09:04:37.338Z,25.61
2022-09-20T09:05:39.047Z,25.33
2022-09-20T09:06:42.403Z,25.64
2022-09-20T09:07:44.237Z,25.77
2022-09-20T09:08:53.665Z,25.14
2022-09-20T09:09:57.071Z,25.03
2022-09-20T09:11:08.450Z,25.41
2022-09-20T09:12:22.356Z,24.71
2022-09-20T09:14:04.706Z,24.81
2022-09-20T09:15:21.651Z,24.91
2022-09-20T09:16:34.480Z,25.22
2022-09-20T09:17:37.140Z,25.25
2022-09-20T09:18:44.750Z,24.96
2022-09-20T09:20:22.589Z,25.31
2022-09-20T09:21:25.870Z,24.79
2022-09-20T09:22:41.791Z,25.26
2022-09-20T09:24:01.588Z,25.23
2022-09-20T09:25:17.035Z,25.28
2022-09-20T09:26:24.043Z,25.27
2022-09-20T09:27:26.124Z,25.36
2022-09-20T09:28:31.774Z,24.96
2022-09-20T09:29:35.022Z,24.90
2022-09-20T09:30:47.686Z,25.10
2022-09-20T09:31:52.512Z,25.51
2022-09-20T09:33:20.088Z,25.17
2022-09-20T09:34:29.179Z,25.31
2022-09-20T09:35:31.879Z,25.18
2022-09-20T09:36:44.146Z,25.05
2022-09-20T09:37:57.986Z,25.24
2022-09-20T09:39:23.482Z,25.58
2022-09-20T09:40:26.303Z,24.82
2022-09-20T09:41:35.339Z,25.37
2022-09-20T09:42:37.273Z,25.38
2022-09-20T09:43:40.663Z,25.49
2022-09-20T09:44:42.451Z,25.15
2022-09-20T09:45:44.232Z,25.22
2022-09-20T09:46:46.217Z,25.21
2022-09-20T09:47:48.062Z,25.16
2022-09-20T09:49:15.685Z,24.84
2022-09-20T09:50:30.637Z,25.47
2022-09-20T09:51:32.443Z,24.97
2022-09-20T09:52:36.427Z,24.80
2022-09-20T09:53:39.581Z,25.11
2022-09-20T09:54:50.704Z,25.05
2022-09-20T09:56:03.640Z,24.90
2022-09-20T09:57:32.046Z,25.40
2022-09-20T09:58:55.602Z,25.28
2022-09-20T10:00:19.264Z,24.85
2022-09-20T10:02:15.313Z,25.21
2022-09-20T10:03:35.551Z,24.99
2022-09-20T10:04:48.294Z,25.22
2022-09-20T10:06:11.098Z,25.23
2022-09-20T10:07:25.430Z,25.14
2022-09-20T10:08:49.404Z,25.11
2022-09-20T10:10:04.374Z,25.09
2022-09-20T10:11:27.942Z,24.76
2022-09-20T10:12:35.746Z,24.71
2022-09-20T10:13:40.606Z,24.83
2022-09-20T10:14:48.497Z,24.92
2022-09-20T10:15:59.752Z,25.26
2022-09-20T10:17:35.042Z,24.81
2022-09-20T10:18:48.893Z,24.81
2022-09-20T10:20:10.557Z,24.85
2022-09-20T10:21:44.081Z,25.05
2022-09-20T10:23:44.946Z,24.96
2022-09-20T10:24:51.351Z,24.62
2022-09-20T10:26:02.568Z,24.99
2022-09-20T10:27:33.375Z,24.80
2022-09-20T10:28:53.378Z,24.52
2022-09-20T10:30:21.022Z,24.77
2022-09-20T10:31:42.936Z,24.84
2022-09-20T10:33:02.187Z,24.92
2022-09-20T10:34:03.857Z,24.49
2022-09-20T10:35:08.609Z,24.71
2022-09-20T10:36:40.519Z,25.22
2022-09-20T10:37:54.890Z,25.00
2022-09-20T10:39:10.634Z,24.99
2022-09-20T10:40:15.433Z,25.17
2022-09-20T10:42:20.395Z,24.98
2022-09-20T10:43:46.629Z,24.82
2022-09-20T10:44:51.231Z,24.70
2022-09-20T10:46:32.469Z,25.09
2022-09-20T10:47:47.091Z,25.37
2022-09-20T10:49:02.234Z,24.91
2022-09-20T10:50:34.042Z,24.93
2022-09-20T10:51:55.424Z,24.75
2022-09-20T10:53:27.885Z,25.10
2022-09-20T10:54:36.184Z,25.11
2022-09-20T10:55:48.113Z,25.43
2022-09-20T10:56:55.655Z,24.93
2022-09-20T10:58:26.805Z,25.05
2022-09-20T10:59:39.986Z,24.81
2022-09-20T11:00:47.445Z,24.93
2022-09-20T11:01:49.530Z,24.98
2022-09-20T11:03:00.018Z,25.24
2022-09-20T11:04:22.015Z,25.31
2022-09-20T11:05:39.429Z,25.27
2022-09-20T11:07:03.302Z,25.23
2022-09-20T11:08:22.869Z,25.08
2022-09-20T11:09:29.735Z,25.67
2022-09-20T11:10:39.280Z,25.42
2022-09-20T11:11:46.826Z,25.18
2022-09-20T11:12:59.934Z,25.09
2022-09-20T11:14:11.933Z,25.63
2022-09-20T11:15:22.657Z,25.48
2022-09-20T11:16:57.183Z,25.36
2022-09-20T11:18:02.663Z,25.21
2022-09-20T11:19:10.935Z,25.56
2022-09-20T11:20:25.127Z,25.44
2022-09-20T11:21:39.002Z,25.16
2022-09-20T11:22:48.259Z,25.66
2022-09-20T11:23:57.224Z,25.19
2022-09-20T11:25:14.835Z,25.36
2022-09-20T11:26:36.518Z,25.18
2022-09-20T11:27:42.465Z,25.21
2022-09-20T11:28:50.388Z,24.85
2022-09-20T11:29:56.670Z,25.17
2022-09-20T11:31:09.791Z,25.30
2022-09-20T11:32:17.831Z,25.15
2022-09-20T11:33:27.458Z,25.01
2022-09-20T11:34:33.617Z,25.26
2022-09-20T11:35:40.664Z,25.14
2022-09-20T11:36:52.309Z,25.34
2022-09-20T11:38:04.920Z,25.35
2022-09-20T11:39:19.358Z,24.99
2022-09-20T11:40:37.067Z,24.94
2022-09-20T11:41:39.102Z,24.61
2022-09-20T11:42:42.418Z,25.09
2022-09-20T11:43:46.114Z,25.17
2022-09-20T11:44:48.347Z,25.03
2022-09-20T11:45:56.445Z,24.96
2022-09-20T11:47:42.950Z,24.86
2022-09-20T11:48:58.242Z,24.44
2022-09-20T11:49:59.921Z,25.08
2022-09-20T11:51:20.371Z,25.10
2022-09-20T11:52:21.982Z,25.13
2022-09-20T11:53:57.102Z,24.67
2022-09-20T11:55:41.843Z,24.65
2022-09-20T11:56:51.683Z,24.94
2022-09-20T11:58:08.946Z,25.12
2022-09-20T11:59:23.374Z,25.16
2022-09-20T12:00:31.451Z,24.90
2022-09-20T12:01:36.472Z,25.22
2022-09-20T12:02:51.760Z,25.39
2022-09-20T12:04:20.590Z,24.92
2022-09-20T12:05:33.995Z,25.55
2022-09-20T12:06:38.433Z,25.23
2022-09-20T12:07:44.412Z,25.02
2022-09-20T12:08:50.222Z,25.12
2022-09-20T12:10:11.000Z,24.94
2022-09-20T12:11:14.860Z,25.20
2022-09-20T12:12:41.722Z,24.81
2022-09-20T12:13:55.887Z,25.23
2022-09-20T12:14:59.943Z,25.12
2022-09-20T12:16:08.097Z,24.84
2022-09-20T12:17:48.369Z,24.86
2022-09-20T12:18:53.980Z,24.68
2022-09-20T12:19:55.673Z,24.62
2022-09-20T12:21:15.394Z,24.99
2022-09-20T12:22:27.505Z,25.23
2022-09-20T12:23:38.448Z,24.83
2022-09-20T12:24:45.099Z,25.34
2022-09-20T12:26:02.443Z,25.39
2022-09-20T12:27:29.405Z,25.35
2022-09-20T12:28:42.827Z,25.03
2022-09-20T12:29:54.318Z,25.49
2022-09-20T12:31:29.726Z,25.57
2022-09-20T12:32:58.359Z,24.90
2022-09-20T12:34:16.106Z,25.39
2022-09-20T12:35:36.246Z,25.40
2022-09-20T12:36:43.339Z,25.38
2022-09-20T12:37:45.186Z,25.45
2022-09-20T12:38:51.665Z,25.13
2022-09-20T12:39:55.868Z,24.98
2022-09-20T12:41:08.684Z,25.02
2022-09-20T12:42:10.406Z,25.15
2022-09-20T12:43:21.820Z,25.26
2022-09-20T12:44:35.482Z,24.79
2022-09-20T12:45:37.439Z,24.86
2022-09-20T12:46:49.834Z,25.13
2022-09-20T12:47:55.606Z,25.04
2022-09-20T12:49:54.847Z,24.84
2022-09-20T12:51:33.633Z,24.62
2022-09-20T12:52:50.575Z,24.69
2022-09-20T12:54:02.130Z,24.77
2022-09-20T12:55:08.961Z,24.66
2022-09-20T12:56:19.967Z,24.98
2022-09-20T12:57:35.679Z,24.61
2022-09-20T12:58:48.487Z,24.80
2022-09-20T12:59:57.964Z,24.94
2022-09-20T13:01:06.863Z,24.87
2022-09-20T13:02:42.717Z,24.65
2022-09-20T13:03:49.297Z,25.09
2022-09-20T13:04:53.923Z,24.84
2022-09-20T13:06:05.810Z,24.61
2022-09-20T13:07:33.278Z,24.44
2022-09-20T13:09:05.025Z,24.55
2022-09-20T13:10:27.307Z,24.83
2022-09-20T13:11:34.658Z,24.68
2022-09-20T13:12:38.337Z,24.63
2022-09-20T13:13:47.697Z,25.01
2022-09-20T13:14:50.471Z,24.48
2022-09-20T13:15:53.800Z,24.56
2022-09-20T13:16:57.780Z,24.69
2022-09-20T13:18:02.349Z,25.07
2022-09-20T13:19:07.889Z,24.88
2022-09-20T13:20:19.530Z,24.58
2022-09-20T13:21:21.758Z,24.64
2022-09-20T13:22:29.075Z,25.04
2022-09-20T13:23:32.246Z,24.90
2022-09-20T13:24:39.484Z,24.98
2022-09-20T13:25:41.231Z,25.00
2022-09-20T13:26:46.077Z,24.97
2022-09-20T13:28:34.422Z,24.57
2022-09-20T13:29:44.875Z,24.85
2022-09-20T13:30:46.682Z,24.58
2022-09-20T13:31:48.540Z,24.94
2022-09-20T13:32:51.735Z,24.94
2022-09-20T13:33:53.958Z,24.64
2022-09-20T13:35:10.968Z,25.15
2022-09-20T13:36:13.445Z,25.11
2022-09-20T13:37:23.708Z,25.16
2022-09-20T13:38:30.198Z,24.92
2022-09-20T13:39:36.254Z,24.82
2022-09-20T13:40:42.381Z,24.79
2022-09-20T13:41:44.135Z,24.58
2022-09-20T13:42:48.119Z,24.77
2022-09-20T13:43:51.044Z,25.23
2022-09-20T13:44:52.974Z,24.81
2022-09-20T13:46:00.387Z,24.83
2022-09-20T13:47:21.153Z,25.32
2022-09-20T13:48:29.854Z,24.85
2022-09-20T13:49:32.856Z,25.00
2022-09-20T13:50:40.041Z,24.90
2022-09-20T13:51:43.963Z,25.21
2022-09-20T13:52:48.455Z,25.15
2022-09-20T13:53:50.267Z,25.11
2022-09-20T13:54:52.091Z,25.15
2022-09-20T13:55:57.029Z,25.17
2022-09-20T13:57:05.153Z,24.99
2022-09-20T13:58:09.863Z,24.70
2022-09-20T13:59:19.289Z,24.90
2022-09-20T14:00:21.213Z,25.20
2022-09-20T14:01:32.872Z,24.93
2022-09-20T14:02:34.627Z,24.82
2022-09-20T14:03:36.703Z,25.18
2022-09-20T14:04:39.361Z,25.08
2022-09-20T14:05:49.985Z,25.25
2022-09-20T14:06:54.320Z,24.95
2022-09-20T14:07:57.669Z,24.49
2022-09-20T14:09:01.994Z,24.83
2022-09-20T14:10:04.798Z,25.21
2022-09-20T14:11:12.832Z,25.20
2022-09-20T14:12:14.837Z,24.90
2022-09-20T14:13:18.373Z,25.51
2022-09-20T14:14:22.312Z,24.92
2022-09-20T14:15:25.522Z,24.80
2022-09-20T14:16:33.183Z,25.22
2022-09-20T14:17:36.260Z,25.19
2022-09-20T14:18:41.319Z,25.42
2022-09-20T14:19:45.751Z,24.83
2022-09-20T14:20:48.492Z,24.83
2022-09-20T14:21:50.579Z,25.38
2022-09-20T14:22:55.101Z,25.03
2022-09-20T14:24:22.592Z,25.05
2022-09-20T14:25:26.816Z,24.78
2022-09-20T14:26:34.931Z,25.13
2022-09-20T14:27:36.597Z,25.27
2022-09-20T14:28:38.356Z,25.23
2022-09-20T14:29:42.391Z,24.88
2022-09-20T14:30:46.554Z,25.12
2022-09-20T14:31:48.570Z,25.37
2022-09-20T14:32:56.697Z,24.90
2022-09-20T14:34:02.185Z,25.06
2022-09-20T14:35:06.625Z,24.94
2022-09-20T14:36:18.054Z,24.93
2022-09-20T14:37:29.757Z,25.43
2022-09-20T14:38:32.937Z,25.25
2022-09-20T14:39:44.897Z,25.23
2022-09-20T14:40:48.157Z,25.20
2022-09-20T14:41:50.860Z,25.15
2022-09-20T14:42:52.557Z,25.41
2022-09-20T14:43:59.571Z,25.75
2022-09-20T14:45:06.125Z,25.29
2022-09-20T14:46:17.595Z,25.31
2022-09-20T14:47:37.857Z,24.89
2022-09-20T14:48:45.522Z,25.31
2022-09-20T14:49:47.267Z,25.30
2022-09-20T14:51:18.043Z,25.08
2022-09-20T14:52:25.805Z,24.91
2022-09-20T14:53:27.636Z,24.63
2022-09-20T14:54:30.842Z,25.10
2022-09-20T14:55:37.382Z,24.92
2022-09-20T14:56:42.250Z,25.21
2022-09-20T14:57:46.191Z,24.95
2022-09-20T14:59:20.613Z,25.47
2022-09-20T15:00:22.602Z,24.82
2022-09-20T15:01:25.951Z,25.20
2022-09-20T15:02:27.771Z,24.92
2022-09-20T15:03:33.469Z,25.31
2022-09-20T15:04:37.875Z,24.93
2022-09-20T15:05:39.821Z,25.19
2022-09-20T15:06:42.586Z,25.05
2022-09-20T15:07:45.310Z,25.48
2022-09-20T15:08:47.346Z,25.46
2022-09-20T15:09:49.200Z,25.15
2022-09-20T15:10:51.798Z,25.13
2022-09-20T15:12:12.285Z,25.29
2022-09-20T15:13:14.359Z,25.49
2022-09-20T15:14:16.192Z,25.21
2022-09-20T15:15:19.106Z,25.48
2022-09-20T15:16:21.076Z,25.46
2022-09-20T15:17:23.767Z,25.59
2022-09-20T15:18:35.298Z,25.57
2022-09-20T15:19:37.022Z,25.30
2022-09-20T15:20:38.703Z,25.45
2022-09-20T15:21:40.434Z,25.81
2022-09-20T15:22:42.837Z,25.72
2022-09-20T15:23:44.564Z,25.31
2022-09-20T15:24:46.306Z,25.58
2022-09-20T15:25:53.362Z,25.48
2022-09-20T15:26:55.078Z,25.39
2022-09-20T15:27:58.031Z,25.29
2022-09-20T15:29:00.840Z,25.55
2022-09-20T15:30:02.692Z,26.07
2022-09-20T15:31:04.751Z,25.86
2022-09-20T15:32:06.838Z,25.83
2022-09-20T15:33:09.749Z,25.70
2022-09-20T15:34:12.847Z,26.04
2022-09-20T15:35:14.871Z,25.60
2022-09-20T15:36:16.632Z,25.92